Flight Track Log - Related Links

Times and Time Zones

All times are in EDT time to prevent confusion due to time zone crossing. See the SWA1521 flight status page for this flight to view local times or setup timezone preferences in your user account.

Time Position Orientation Groundspeed Altitude Reporting Facility
EDT Latitude Longitude Course Direction KTS MPH feet Rate Location/Type
Sun 03:34:15 PM 47.6453 -117.4997 75° East 186 214 3,400  Level Seattle Center
Sun 03:35:16 PM 47.6633 -117.3992 75° East 242 278 6,000 2,607 Climbing Seattle Center
Sun 03:36:17 PM 47.6031 -117.3467 150° Southeast 258 297 8,700 2,585 Climbing Seattle Center
Sun 03:37:19 PM 47.5317 -117.2914 152° Southeast 283 326 11,300 2,439 Climbing Seattle Center
Sun 03:38:20 PM 47.4567 -117.2350 153° Southeast 302 348 13,700 1,869 Climbing Seattle Center
Sun 03:39:21 PM 47.3647 -117.1644 153° Southeast 354 407 15,100 1,525 Climbing Seattle Center
Sun 03:40:22 PM 47.2669 -117.0936 154° Southeast 388 447 16,800 1,623 Climbing Seattle Center
Sun 03:41:23 PM 47.1775 -117.0450 160° South 406 467 18,400 2,016 Climbing Seattle Center
Sun 03:42:24 PM 47.0492 -116.9697 158° South 414 476 20,900 2,311 Climbing Seattle Center
Sun 03:43:25 PM 46.9425 -116.9067 158° South 414 476 23,100 1,918 Climbing Seattle Center
Sun 03:44:26 PM 46.8342 -116.8439 158° South 418 481 24,800 1,610 Climbing Seattle Center
Sun 03:45:28 PM 46.7250 -116.7811 158° South 421 484 26,400 1,366 Climbing Seattle Center
Sun 03:46:29 PM 46.6142 -116.7161 158° South 428 493 27,600 1,230 Climbing Seattle Center
Sun 03:47:30 PM 46.4992 -116.6508 159° South 438 504 28,900 1,475 Climbing Seattle Center
Sun 03:48:31 PM 46.3853 -116.5875 159° South 441 507 30,600 1,426 Climbing Seattle Center
Sun 03:49:32 PM 46.2731 -116.5203 158° South 438 504 31,800 1,131 Climbing Seattle Center
Sun 03:50:33 PM 46.1586 -116.4567 159° South 434 499 32,900 1,131 Climbing Seattle Center
Sun 03:51:34 PM 46.0486 -116.3933 158° South 436 502 34,100 1,033 Climbing Seattle Center
Sun 03:52:35 PM 45.9147 -116.3189 159° South 432 497 35,000 443 Climbing Seattle Center
Sun 03:53:36 PM 45.8022 -116.2533 158° South 437 503 35,000  Level Seattle Center
Sun 03:54:37 PM 45.6906 -116.1906 159° South 436 502 35,000  Level Seattle Center
Sun 03:55:39 PM 45.5750 -116.1233 158° South 436 502 35,000  Level Seattle Center
Sun 03:56:40 PM 45.4631 -116.0639 160° South 432 497 35,000  Level Seattle Center
Sun 03:57:41 PM 45.3511 -116.0019 159° South 431 496 35,000  Level Seattle Center
Sun 03:58:42 PM 45.2397 -115.9406 159° South 431 496 35,000  Level Seattle Center
Sun 03:59:43 PM 45.1283 -115.8803 159° South 430 495 35,000  Level Seattle Center
Sun 04:00:44 PM 45.0164 -115.8203 159° South 429 494 35,000  Level Seattle Center
Sun 04:01:45 PM 44.9042 -115.7581 159° South 431 496 35,000  Level Seattle Center
Sun 04:02:46 PM 44.7914 -115.7008 160° South 430 495 35,000  Level Seattle Center
Sun 04:03:47 PM 44.6789 -115.6386 159° South 433 498 35,000  Level Seattle Center
Sun 04:04:48 PM 44.5653 -115.5789 159° South 434 499 35,000  Level Seattle Center
Sun 04:05:49 PM 44.4522 -115.5181 159° South 434 499 35,000  Level Seattle Center
Sun 04:07:11 PM 44.2936 -115.4347 159° South 436 502 35,000  Level Salt Lake Center
Sun 04:08:12 PM 44.1803 -115.3739 159° South 435 501 35,000  Level Salt Lake Center
Sun 04:09:14 PM 44.0664 -115.3150 160° South 435 501 35,000  Level Salt Lake Center
Sun 04:10:16 PM 43.9531 -115.2564 160° South 435 501 35,000  Level Salt Lake Center
Sun 04:11:17 PM 43.8172 -115.1850 159° South 435 501 35,000  Level Salt Lake Center
Sun 04:12:19 PM 43.7039 -115.1267 160° South 436 502 35,000  Level Salt Lake Center
Sun 04:13:21 PM 43.5906 -115.0672 159° South 436 502 35,000  Level Salt Lake Center
Sun 04:14:23 PM 43.4761 -115.0089 160° South 438 504 35,000  Level Salt Lake Center
Sun 04:15:24 PM 43.3633 -114.9503 159° South 434 499 35,000  Level Salt Lake Center
Sun 04:16:26 PM 43.2494 -114.8925 160° South 435 501 35,000  Level Salt Lake Center
Sun 04:17:28 PM 43.1358 -114.8339 159° South 437 503 35,000  Level Salt Lake Center
Sun 04:18:30 PM 42.9997 -114.7653 160° South 436 502 35,000  Level Salt Lake Center
Sun 04:19:32 PM 42.8856 -114.7075 160° South 437 503 35,000  Level Salt Lake Center
Sun 04:20:33 PM 42.7717 -114.6511 160° South 435 501 35,000  Level Salt Lake Center
Sun 04:21:35 PM 42.6592 -114.5939 159° South 433 498 35,000  Level Salt Lake Center
Sun 04:22:37 PM 42.5400 -114.5333 159° South 433 498 35,000  Level Salt Lake Center
Sun 04:23:39 PM 42.4267 -114.4781 160° South 434 499 35,000  Level Salt Lake Center
Sun 04:24:40 PM 42.3139 -114.4211 160° South 433 498 35,000  Level Salt Lake Center
Sun 04:25:42 PM 42.2008 -114.3667 160° South 433 498 35,000  Level Salt Lake Center
Sun 04:26:44 PM 42.0875 -114.3108 160° South 432 497 35,000  Level Salt Lake Center
Sun 04:27:46 PM 41.9528 -114.2444 160° South 432 497 35,000  Level Salt Lake Center
Sun 04:28:48 PM 41.8383 -114.1897 160° South 435 501 35,000  Level Salt Lake Center
Sun 04:29:49 PM 41.7242 -114.1347 160° South 437 503 35,000  Level Salt Lake Center
Sun 04:30:51 PM 41.6108 -114.0797 160° South 436 502 35,000  Level Salt Lake Center
Sun 04:31:53 PM 41.4981 -114.0247 160° South 434 499 35,000  Level Salt Lake Center
Sun 04:32:55 PM 41.3844 -113.9708 160° South 435 501 35,000  Level Salt Lake Center
Sun 04:33:57 PM 41.2478 -113.9056 160° South 436 502 35,000  Level Salt Lake Center
Sun 04:34:58 PM 41.1350 -113.8519 160° South 434 499 35,000  Level Salt Lake Center
Sun 04:36:00 PM 41.0222 -113.7981 160° South 433 498 35,000  Level Salt Lake Center
Sun 04:37:02 PM 40.9100 -113.7456 161° South 431 496 35,000  Level Salt Lake Center
Sun 04:38:04 PM 40.7975 -113.6914 160° South 431 496 35,000  Level Salt Lake Center
Sun 04:39:06 PM 40.6814 -113.6378 161° South 437 503 35,000  Level Salt Lake Center
Sun 04:40:08 PM 40.5450 -113.5747 161° South 435 501 35,000  Level Salt Lake Center
Sun 04:41:09 PM 40.4319 -113.5219 160° South 433 498 35,000  Level Salt Lake Center
Sun 04:42:11 PM 40.3192 -113.4692 160° South 433 498 35,000  Level Salt Lake Center
Sun 04:43:13 PM 40.2042 -113.4175 161° South 437 503 35,000  Level Salt Lake Center
Sun 04:44:15 PM 40.0906 -113.3658 161° South 434 499 35,000  Level Salt Lake Center
Sun 04:45:17 PM 39.9758 -113.3125 160° South 438 504 35,000  Level Salt Lake Center
Sun 04:46:19 PM 39.8389 -113.2503 161° South 436 502 35,000  Level Salt Lake Center
Sun 04:47:20 PM 39.7356 -113.2028 161° South 439 505 35,000  Level Salt Lake Center
Sun 04:48:22 PM 39.6214 -113.1508 161° South 437 503 35,000  Level Salt Lake Center
Sun 04:49:24 PM 39.4833 -113.0883 161° South 439 505 35,000  Level Salt Lake Center
Sun 04:50:26 PM 39.3683 -113.0367 161° South 438 504 35,000  Level Salt Lake Center
Sun 04:51:27 PM 39.2533 -112.9861 161° South 437 503 35,000  Level Salt Lake Center
Sun 04:52:29 PM 39.1386 -112.9369 162° South 436 502 35,000  Level Salt Lake Center
Sun 04:53:31 PM 39.0189 -112.9106 170° South 436 502 35,000  Level Salt Lake Center
Sun 04:54:33 PM 38.8983 -112.8903 173° South 438 504 35,000  Level Salt Lake Center
Sun 04:55:34 PM 38.7786 -112.8686 172° South 436 502 35,000  Level Salt Lake Center
Sun 04:56:36 PM 38.6333 -112.8425 172° South 438 504 35,000  Level Salt Lake Center
Sun 04:57:38 PM 38.5119 -112.8181 171° South 440 506 35,000  Level Salt Lake Center
Sun 04:58:40 PM 38.3906 -112.7975 172° South 441 507 35,000  Level Salt Lake Center
Sun 04:59:41 PM 38.2686 -112.7778 173° South 441 507 35,000  Level Salt Lake Center
Sun 05:00:43 PM 38.1467 -112.7544 171° South 443 510 35,000  Level Salt Lake Center
Sun 05:01:45 PM 38.0239 -112.7336 172° South 443 510 35,000  Level Salt Lake Center
Sun 05:02:47 PM 37.9019 -112.7122 172° South 441 507 35,000  Level Salt Lake Center
Sun 05:03:48 PM 37.7781 -112.6903 172° South 444 511 35,000  Level Salt Lake Center
Sun 05:04:50 PM 37.6536 -112.6672 172° South 444 511 35,000  Level Salt Lake Center
Sun 05:05:52 PM 37.5275 -112.6458 172° South 446 513 35,000 -98 Level Salt Lake Center
Sun 05:06:53 PM 37.3772 -112.6203 172° South 448 516 34,800 -341 Descending Salt Lake Center
Sun 05:07:55 PM 37.2533 -112.5992 172° South 448 516 34,300 -484 Descending Salt Lake Center
Sun 05:08:57 PM 37.1300 -112.5781 172° South 445 512 33,800 -435 Descending Salt Lake Center
Sun 05:09:59 PM 37.0061 -112.5564 172° South 448 516 33,400 -439 Descending Salt Lake Center
Sun 05:11:00 PM 36.8819 -112.5361 173° South 448 516 32,900 -488 Descending Salt Lake Center
Sun 05:12:02 PM 36.7592 -112.5142 172° South 447 514 32,400 -484 Descending Salt Lake Center
Sun 05:13:04 PM 36.6353 -112.4939 173° South 447 514 31,900 -439 Descending Salt Lake Center
Sun 05:14:05 PM 36.5119 -112.4722 172° South 448 516 31,500 -391 Descending Salt Lake Center
Sun 05:15:22 PM 36.3378 -112.4428 172° South 450 518 31,000 -345 Descending Los Angeles Center
Sun 05:16:24 PM 36.2139 -112.4208 172° South 449 517 30,700 -387 Descending Los Angeles Center
Sun 05:17:26 PM 36.0878 -112.4022 173° South 454 522 30,200 -480 Descending Los Angeles Center
Sun 05:18:29 PM 35.9656 -112.4064 182° South 441 507 29,700 -480 Descending Los Angeles Center
Sun 05:19:31 PM 35.8428 -112.4114 182° South 435 501 29,200 -339 Descending Los Angeles Center
Sun 05:20:33 PM 35.6967 -112.4194 183° South 436 502 29,000 -97 Descending Los Angeles Center
Sun 05:21:35 PM 35.5728 -112.4253 182° South 442 509 29,000  Level Los Angeles Center
Sun 05:22:37 PM 35.4472 -112.4353 184° South 447 514 29,000  Level Los Angeles Center
Sun 05:23:50 PM 35.2933 -112.4150 174° South 460 529 29,000  Level Albuquerque Center
Sun 05:24:51 PM 35.1672 -112.3875 170° South 460 529 29,000  Level Albuquerque Center
Sun 05:25:53 PM 35.0425 -112.3606 170° South 456 525 29,000 -1,016 Level Albuquerque Center
Sun 05:26:55 PM 34.9189 -112.3353 170° South 453 521 26,900 -1,452 Descending Albuquerque Center
Sun 05:27:57 PM 34.8003 -112.3089 170° South 440 506 26,000 -1,463 Descending Albuquerque Center
Sun 05:28:58 PM 34.6644 -112.2789 170° South 434 499 23,900 -2,098 Descending Albuquerque Center
Sun 05:29:00 PM 34.6843 -112.2695 170° South  Level FlightAware Approximate
Sun 05:30:00 PM 34.5486 -112.2536 170° South 428 493 21,700  Level Albuquerque Center
Sun 05:31:02 PM 34.4403 -112.2297 170° South 408 470 19,900 -1,694 Descending Albuquerque Center
Sun 05:32:04 PM 34.3358 -112.2028 168° South 393 452 18,200 -1,742 Descending Albuquerque Center
Sun 05:33:06 PM 34.2361 -112.1756 167° South 377 434 16,300 -2,000 Descending Albuquerque Center
Sun 05:34:07 PM 34.1172 -112.1444 168° South 360 414 14,100 -1,707 Descending Albuquerque Center
Sun 05:35:09 PM 34.0256 -112.1431 179° South 344 396 12,800 -1,403 Descending Albuquerque Center
Sun 05:36:11 PM 33.9342 -112.1533 185° South 335 386 11,200 -1,355 Descending Albuquerque Center
Sun 05:37:13 PM 33.8478 -112.1681 188° South 320 368 10,000 -581 Descending Albuquerque Center
Sun 05:38:15 PM 33.7667 -112.1861 190° South 302 348 10,000 -195 Level Albuquerque Center
Sun 05:39:16 PM 33.6733 -112.2050 190° South 286 329 9,600 -732 Descending Albuquerque Center
Sun 05:40:18 PM 33.6044 -112.2139 186° South 254 292 8,500 -1,210 Descending Albuquerque Center
Sun 05:41:20 PM 33.5361 -112.2203 184° South 248 285 7,100 -1,790 Descending Albuquerque Center
Sun 05:42:22 PM 33.4711 -112.2258 184° South 237 273 4,800 -2,032 Descending Albuquerque Center
Sun 05:43:24 PM 33.4408 -112.1717 124° Southeast 230 265 2,900 -1,221 Descending Albuquerque Center
Sun 05:44:15 PM 33.4333 -112.1167 99° East 149 171 2,500 -595 Descending Phoenix TRACON
Sun 05:45:15 PM 33.4333 -112.0667 90° East 150 173 1,800 -700 Descending Phoenix TRACON
Sun 05:48:00 PM 33.4343 -112.0116 270° West  Level Estimated

Login

Don't have an account? Register now (free) for customized features, flight alerts, and more!